sensor_id;sensor_type;location;lat;lon;timestamp;P1;durP1;ratioP1;P2;durP2;ratioP2
23169;SDS011;11753;43.144;24.714;2023-02-03T00:00:58;4.47;;;2.30;;
23169;SDS011;11753;43.144;24.714;2023-02-03T00:02:01;9.07;;;3.00;;
23169;SDS011;11753;43.144;24.714;2023-02-03T00:03:02;3.75;;;2.05;;
23169;SDS011;11753;43.144;24.714;2023-02-03T00:04:03;3.25;;;1.77;;
23169;SDS011;11753;43.144;24.714;2023-02-03T00:05:04;3.40;;;1.77;;
23169;SDS011;11753;43.144;24.714;2023-02-03T00:06:08;4.70;;;2.05;;
23169;SDS011;11753;43.144;24.714;2023-02-03T00:07:12;5.70;;;2.35;;
23169;SDS011;11753;43.144;24.714;2023-02-03T00:08:14;7.78;;;2.30;;
23169;SDS011;11753;43.144;24.714;2023-02-03T00:09:17;4.35;;;2.22;;
23169;SDS011;11753;43.144;24.714;2023-02-03T00:10:18;5.60;;;2.10;;
23169;SDS011;11753;43.144;24.714;2023-02-03T00:11:21;5.35;;;2.28;;
23169;SDS011;11753;43.144;24.714;2023-02-03T00:12:22;6.10;;;2.83;;
23169;SDS011;11753;43.144;24.714;2023-02-03T00:13:23;4.47;;;2.20;;
23169;SDS011;11753;43.144;24.714;2023-02-03T00:14:26;6.05;;;2.40;;
23169;SDS011;11753;43.144;24.714;2023-02-03T00:15:27;5.25;;;2.25;;
23169;SDS011;11753;43.144;24.714;2023-02-03T00:16:28;4.95;;;2.70;;
23169;SDS011;11753;43.144;24.714;2023-02-03T00:17:29;4.25;;;2.13;;
23169;SDS011;11753;43.144;24.714;2023-02-03T00:18:29;3.08;;;1.80;;
23169;SDS011;11753;43.144;24.714;2023-02-03T00:19:30;5.32;;;2.42;;
23169;SDS011;11753;43.144;24.714;2023-02-03T00:20:31;6.88;;;2.70;;
23169;SDS011;11753;43.144;24.714;2023-02-03T00:21:32;4.63;;;2.30;;
23169;SDS011;11753;43.144;24.714;2023-02-03T00:22:33;5.85;;;2.90;;
23169;SDS011;11753;43.144;24.714;2023-02-03T00:23:34;6.53;;;3.17;;
23169;SDS011;11753;43.144;24.714;2023-02-03T00:24:35;3.55;;;1.50;;
23169;SDS011;11753;43.144;24.714;2023-02-03T00:25:36;3.28;;;1.65;;
23169;SDS011;11753;43.144;24.714;2023-02-03T00:26:41;3.25;;;1.77;;
23169;SDS011;11753;43.144;24.714;2023-02-03T00:27:43;5.30;;;1.85;;
23169;SDS011;11753;43.144;24.714;2023-02-03T00:28:44;3.90;;;1.67;;
23169;SDS011;11753;43.144;24.714;2023-02-03T00:29:47;4.90;;;1.85;;
23169;SDS011;11753;43.144;24.714;2023-02-03T00:30:48;3.70;;;1.67;;
23169;SDS011;11753;43.144;24.714;2023-02-03T00:31:49;3.72;;;1.65;;
23169;SDS011;11753;43.144;24.714;2023-02-03T00:32:50;4.63;;;1.55;;
23169;SDS011;11753;43.144;24.714;2023-02-03T00:33:54;5.00;;;1.95;;
23169;SDS011;11753;43.144;24.714;2023-02-03T00:34:56;3.47;;;1.90;;
23169;SDS011;11753;43.144;24.714;2023-02-03T00:35:57;3.47;;;1.58;;
23169;SDS011;11753;43.144;24.714;2023-02-03T00:36:58;4.25;;;1.70;;
23169;SDS011;11753;43.144;24.714;2023-02-03T00:37:59;4.35;;;1.55;;
23169;SDS011;11753;43.144;24.714;2023-02-03T00:39:00;5.35;;;1.90;;
23169;SDS011;11753;43.144;24.714;2023-02-03T00:40:01;3.40;;;1.70;;
23169;SDS011;11753;43.144;24.714;2023-02-03T00:41:02;6.38;;;1.77;;
23169;SDS011;11753;43.144;24.714;2023-02-03T00:42:04;5.00;;;1.95;;
23169;SDS011;11753;43.144;24.714;2023-02-03T00:43:05;3.05;;;1.65;;
23169;SDS011;11753;43.144;24.714;2023-02-03T00:44:06;4.18;;;2.22;;
23169;SDS011;11753;43.144;24.714;2023-02-03T00:45:07;4.88;;;2.00;;
23169;SDS011;11753;43.144;24.714;2023-02-03T00:46:09;3.25;;;1.60;;
23169;SDS011;11753;43.144;24.714;2023-02-03T00:47:10;4.18;;;1.95;;
23169;SDS011;11753;43.144;24.714;2023-02-03T00:48:11;4.43;;;1.50;;
23169;SDS011;11753;43.144;24.714;2023-02-03T00:49:12;3.53;;;1.70;;
23169;SDS011;11753;43.144;24.714;2023-02-03T00:50:13;3.33;;;1.42;;
23169;SDS011;11753;43.144;24.714;2023-02-03T00:51:14;5.00;;;1.85;;
23169;SDS011;11753;43.144;24.714;2023-02-03T00:52:15;3.45;;;1.83;;
23169;SDS011;11753;43.144;24.714;2023-02-03T00:53:16;3.80;;;1.70;;
23169;SDS011;11753;43.144;24.714;2023-02-03T00:54:17;4.32;;;2.08;;
23169;SDS011;11753;43.144;24.714;2023-02-03T00:55:18;3.97;;;1.67;;
23169;SDS011;11753;43.144;24.714;2023-02-03T00:56:19;4.13;;;1.60;;
23169;SDS011;11753;43.144;24.714;2023-02-03T00:57:20;2.50;;;1.30;;
23169;SDS011;11753;43.144;24.714;2023-02-03T00:58:21;4.50;;;1.60;;
23169;SDS011;11753;43.144;24.714;2023-02-03T00:59:22;4.03;;;1.40;;
23169;SDS011;11753;43.144;24.714;2023-02-03T01:00:23;3.90;;;1.52;;
23169;SDS011;11753;43.144;24.714;2023-02-03T01:01:23;3.92;;;1.50;;
23169;SDS011;11753;43.144;24.714;2023-02-03T01:02:24;3.17;;;1.50;;
23169;SDS011;11753;43.144;24.714;2023-02-03T01:03:25;6.28;;;1.85;;
23169;SDS011;11753;43.144;24.714;2023-02-03T01:04:25;4.25;;;1.75;;
23169;SDS011;11753;43.144;24.714;2023-02-03T01:05:26;3.92;;;1.42;;
23169;SDS011;11753;43.144;24.714;2023-02-03T01:06:27;4.43;;;1.40;;
23169;SDS011;11753;43.144;24.714;2023-02-03T01:07:29;4.80;;;1.80;;
23169;SDS011;11753;43.144;24.714;2023-02-03T01:08:31;3.70;;;1.40;;
23169;SDS011;11753;43.144;24.714;2023-02-03T01:09:32;4.07;;;1.67;;
23169;SDS011;11753;43.144;24.714;2023-02-03T01:10:36;3.47;;;1.95;;
23169;SDS011;11753;43.144;24.714;2023-02-03T01:11:37;3.70;;;1.70;;
23169;SDS011;11753;43.144;24.714;2023-02-03T01:12:38;4.80;;;1.90;;
23169;SDS011;11753;43.144;24.714;2023-02-03T01:13:39;5.18;;;2.00;;
23169;SDS011;11753;43.144;24.714;2023-02-03T01:14:39;3.55;;;1.70;;
23169;SDS011;11753;43.144;24.714;2023-02-03T01:15:46;2.55;;;1.45;;
23169;SDS011;11753;43.144;24.714;2023-02-03T01:16:47;4.15;;;1.70;;
23169;SDS011;11753;43.144;24.714;2023-02-03T01:17:48;3.85;;;1.58;;
23169;SDS011;11753;43.144;24.714;2023-02-03T01:18:49;3.22;;;1.60;;
23169;SDS011;11753;43.144;24.714;2023-02-03T01:19:50;3.50;;;1.63;;
23169;SDS011;11753;43.144;24.714;2023-02-03T01:20:51;3.60;;;1.70;;
23169;SDS011;11753;43.144;24.714;2023-02-03T01:21:51;4.10;;;1.60;;
23169;SDS011;11753;43.144;24.714;2023-02-03T01:22:52;5.43;;;1.80;;
23169;SDS011;11753;43.144;24.714;2023-02-03T01:23:53;3.72;;;1.67;;
23169;SDS011;11753;43.144;24.714;2023-02-03T01:24:54;4.03;;;1.80;;
23169;SDS011;11753;43.144;24.714;2023-02-03T01:25:55;4.95;;;1.70;;
23169;SDS011;11753;43.144;24.714;2023-02-03T01:26:56;3.05;;;1.38;;
23169;SDS011;11753;43.144;24.714;2023-02-03T01:27:57;6.78;;;1.50;;
23169;SDS011;11753;43.144;24.714;2023-02-03T01:28:58;3.70;;;1.60;;
23169;SDS011;11753;43.144;24.714;2023-02-03T01:29:59;4.15;;;1.40;;
23169;SDS011;11753;43.144;24.714;2023-02-03T01:31:12;4.22;;;1.70;;
23169;SDS011;11753;43.144;24.714;2023-02-03T01:32:15;4.50;;;1.60;;
23169;SDS011;11753;43.144;24.714;2023-02-03T01:33:18;3.35;;;1.58;;
23169;SDS011;11753;43.144;24.714;2023-02-03T01:34:18;3.45;;;1.70;;
23169;SDS011;11753;43.144;24.714;2023-02-03T01:35:19;3.72;;;1.65;;
23169;SDS011;11753;43.144;24.714;2023-02-03T01:36:21;3.17;;;1.50;;
23169;SDS011;11753;43.144;24.714;2023-02-03T01:37:23;3.97;;;1.48;;
23169;SDS011;11753;43.144;24.714;2023-02-03T01:38:24;4.55;;;1.80;;
23169;SDS011;11753;43.144;24.714;2023-02-03T01:39:24;2.88;;;1.50;;
23169;SDS011;11753;43.144;24.714;2023-02-03T01:40:26;4.07;;;1.60;;
23169;SDS011;11753;43.144;24.714;2023-02-03T01:41:28;4.28;;;1.45;;
23169;SDS011;11753;43.144;24.714;2023-02-03T01:42:31;4.03;;;1.55;;
23169;SDS011;11753;43.144;24.714;2023-02-03T01:43:34;3.60;;;1.70;;
23169;SDS011;11753;43.144;24.714;2023-02-03T01:45:44;3.95;;;1.90;;
23169;SDS011;11753;43.144;24.714;2023-02-03T01:46:45;5.10;;;1.70;;
23169;SDS011;11753;43.144;24.714;2023-02-03T01:47:49;5.20;;;1.73;;
23169;SDS011;11753;43.144;24.714;2023-02-03T01:48:58;6.25;;;1.83;;
23169;SDS011;11753;43.144;24.714;2023-02-03T01:51:14;3.72;;;1.60;;
23169;SDS011;11753;43.144;24.714;2023-02-03T01:52:15;3.80;;;1.98;;
23169;SDS011;11753;43.144;24.714;2023-02-03T01:53:17;3.60;;;1.55;;
23169;SDS011;11753;43.144;24.714;2023-02-03T01:54:22;5.55;;;1.90;;
23169;SDS011;11753;43.144;24.714;2023-02-03T01:55:36;4.18;;;1.80;;
23169;SDS011;11753;43.144;24.714;2023-02-03T01:56:42;5.25;;;1.88;;
23169;SDS011;11753;43.144;24.714;2023-02-03T01:57:53;4.93;;;1.90;;
23169;SDS011;11753;43.144;24.714;2023-02-03T01:58:56;3.60;;;1.80;;
23169;SDS011;11753;43.144;24.714;2023-02-03T01:59:59;4.63;;;1.70;;
23169;SDS011;11753;43.144;24.714;2023-02-03T02:01:02;3.88;;;1.92;;
23169;SDS011;11753;43.144;24.714;2023-02-03T02:02:03;2.17;;;1.30;;
23169;SDS011;11753;43.144;24.714;2023-02-03T02:03:05;4.10;;;1.58;;
23169;SDS011;11753;43.144;24.714;2023-02-03T02:04:08;6.60;;;2.20;;
23169;SDS011;11753;43.144;24.714;2023-02-03T02:06:56;4.00;;;1.80;;
23169;SDS011;11753;43.144;24.714;2023-02-03T02:07:58;5.50;;;1.73;;
23169;SDS011;11753;43.144;24.714;2023-02-03T02:09:00;4.55;;;1.92;;
23169;SDS011;11753;43.144;24.714;2023-02-03T02:10:01;3.80;;;1.67;;
23169;SDS011;11753;43.144;24.714;2023-02-03T02:11:04;3.65;;;1.98;;
23169;SDS011;11753;43.144;24.714;2023-02-03T02:12:07;4.95;;;1.95;;
23169;SDS011;11753;43.144;24.714;2023-02-03T02:13:10;4.65;;;1.90;;
23169;SDS011;11753;43.144;24.714;2023-02-03T02:14:12;3.63;;;1.70;;
23169;SDS011;11753;43.144;24.714;2023-02-03T02:15:12;5.10;;;1.83;;
23169;SDS011;11753;43.144;24.714;2023-02-03T02:16:18;3.25;;;1.40;;
23169;SDS011;11753;43.144;24.714;2023-02-03T02:17:33;4.45;;;1.45;;
23169;SDS011;11753;43.144;24.714;2023-02-03T02:29:01;5.23;;;1.77;;
23169;SDS011;11753;43.144;24.714;2023-02-03T02:30:38;2.97;;;1.50;;
23169;SDS011;11753;43.144;24.714;2023-02-03T02:32:04;3.33;;;1.40;;
23169;SDS011;11753;43.144;24.714;2023-02-03T02:33:40;3.30;;;1.63;;
23169;SDS011;11753;43.144;24.714;2023-02-03T02:34:58;4.55;;;1.90;;
23169;SDS011;11753;43.144;24.714;2023-02-03T02:38:35;4.15;;;1.67;;
23169;SDS011;11753;43.144;24.714;2023-02-03T02:39:51;4.60;;;1.80;;
23169;SDS011;11753;43.144;24.714;2023-02-03T02:41:02;2.53;;;1.45;;
23169;SDS011;11753;43.144;24.714;2023-02-03T02:42:19;3.70;;;1.85;;
23169;SDS011;11753;43.144;24.714;2023-02-03T02:44:48;3.97;;;1.92;;
23169;SDS011;11753;43.144;24.714;2023-02-03T02:45:53;3.75;;;1.90;;
23169;SDS011;11753;43.144;24.714;2023-02-03T02:47:00;2.85;;;1.55;;
23169;SDS011;11753;43.144;24.714;2023-02-03T02:48:06;5.50;;;1.60;;
23169;SDS011;11753;43.144;24.714;2023-02-03T02:49:34;4.85;;;1.92;;
23169;SDS011;11753;43.144;24.714;2023-02-03T02:50:43;3.67;;;1.70;;
23169;SDS011;11753;43.144;24.714;2023-02-03T02:51:46;4.05;;;1.60;;
23169;SDS011;11753;43.144;24.714;2023-02-03T02:52:48;4.50;;;1.80;;
23169;SDS011;11753;43.144;24.714;2023-02-03T02:53:53;4.55;;;1.80;;
23169;SDS011;11753;43.144;24.714;2023-02-03T02:54:59;5.25;;;2.13;;
23169;SDS011;11753;43.144;24.714;2023-02-03T02:56:07;3.67;;;1.87;;
23169;SDS011;11753;43.144;24.714;2023-02-03T02:57:10;5.93;;;1.98;;
23169;SDS011;11753;43.144;24.714;2023-02-03T02:58:14;4.03;;;1.92;;
23169;SDS011;11753;43.144;24.714;2023-02-03T02:59:17;3.70;;;1.70;;
23169;SDS011;11753;43.144;24.714;2023-02-03T03:00:18;3.72;;;1.80;;
23169;SDS011;11753;43.144;24.714;2023-02-03T03:01:22;4.05;;;1.80;;
23169;SDS011;11753;43.144;24.714;2023-02-03T03:02:30;4.03;;;1.77;;
23169;SDS011;11753;43.144;24.714;2023-02-03T03:03:35;4.10;;;1.52;;
23169;SDS011;11753;43.144;24.714;2023-02-03T03:04:40;3.92;;;1.80;;
23169;SDS011;11753;43.144;24.714;2023-02-03T03:05:44;4.55;;;1.63;;
23169;SDS011;11753;43.144;24.714;2023-02-03T03:06:54;4.10;;;1.90;;
23169;SDS011;11753;43.144;24.714;2023-02-03T03:08:04;5.55;;;1.90;;
23169;SDS011;11753;43.144;24.714;2023-02-03T03:09:17;4.15;;;1.90;;
23169;SDS011;11753;43.144;24.714;2023-02-03T03:10:25;4.88;;;2.22;;
23169;SDS011;11753;43.144;24.714;2023-02-03T03:11:36;5.88;;;1.83;;
23169;SDS011;11753;43.144;24.714;2023-02-03T03:12:44;3.50;;;1.70;;
23169;SDS011;11753;43.144;24.714;2023-02-03T03:13:52;3.78;;;1.70;;
23169;SDS011;11753;43.144;24.714;2023-02-03T03:14:59;3.20;;;1.80;;
23169;SDS011;11753;43.144;24.714;2023-02-03T03:16:04;3.72;;;1.85;;
23169;SDS011;11753;43.144;24.714;2023-02-03T03:17:08;5.55;;;2.10;;
23169;SDS011;11753;43.144;24.714;2023-02-03T03:18:23;5.13;;;2.13;;
23169;SDS011;11753;43.144;24.714;2023-02-03T03:19:36;5.30;;;2.40;;
23169;SDS011;11753;43.144;24.714;2023-02-03T03:20:42;5.43;;;2.00;;
23169;SDS011;11753;43.144;24.714;2023-02-03T03:21:50;13.45;;;9.80;;
23169;SDS011;11753;43.144;24.714;2023-02-03T03:22:58;5.60;;;3.05;;
23169;SDS011;11753;43.144;24.714;2023-02-03T03:24:16;8.20;;;4.95;;
23169;SDS011;11753;43.144;24.714;2023-02-03T03:25:24;4.85;;;2.20;;
23169;SDS011;11753;43.144;24.714;2023-02-03T03:27:48;5.95;;;2.50;;
23169;SDS011;11753;43.144;24.714;2023-02-03T03:28:57;5.28;;;2.67;;
23169;SDS011;11753;43.144;24.714;2023-02-03T03:30:08;5.10;;;2.35;;
23169;SDS011;11753;43.144;24.714;2023-02-03T03:31:15;3.63;;;2.40;;
23169;SDS011;11753;43.144;24.714;2023-02-03T03:32:18;7.35;;;2.78;;
23169;SDS011;11753;43.144;24.714;2023-02-03T03:33:19;7.20;;;3.33;;
23169;SDS011;11753;43.144;24.714;2023-02-03T03:34:22;6.15;;;3.13;;
23169;SDS011;11753;43.144;24.714;2023-02-03T03:35:22;5.72;;;2.78;;
23169;SDS011;11753;43.144;24.714;2023-02-03T03:36:32;6.55;;;3.00;;
23169;SDS011;11753;43.144;24.714;2023-02-03T03:40:33;16.58;;;7.18;;
23169;SDS011;11753;43.144;24.714;2023-02-03T03:44:01;6.20;;;3.33;;
23169;SDS011;11753;43.144;24.714;2023-02-03T03:46:28;5.40;;;3.40;;
23169;SDS011;11753;43.144;24.714;2023-02-03T03:47:53;6.38;;;2.80;;
23169;SDS011;11753;43.144;24.714;2023-02-03T03:50:11;5.53;;;2.88;;
23169;SDS011;11753;43.144;24.714;2023-02-03T03:51:18;5.97;;;2.95;;
23169;SDS011;11753;43.144;24.714;2023-02-03T03:52:35;8.85;;;4.18;;
23169;SDS011;11753;43.144;24.714;2023-02-03T03:53:38;7.65;;;4.25;;
23169;SDS011;11753;43.144;24.714;2023-02-03T03:54:42;6.68;;;3.78;;
23169;SDS011;11753;43.144;24.714;2023-02-03T03:55:46;6.10;;;3.30;;
23169;SDS011;11753;43.144;24.714;2023-02-03T03:58:04;5.00;;;3.13;;
23169;SDS011;11753;43.144;24.714;2023-02-03T03:59:10;5.00;;;2.80;;
23169;SDS011;11753;43.144;24.714;2023-02-03T04:00:14;6.13;;;3.17;;
23169;SDS011;11753;43.144;24.714;2023-02-03T04:01:19;5.50;;;2.83;;
23169;SDS011;11753;43.144;24.714;2023-02-03T04:02:25;8.02;;;4.97;;
23169;SDS011;11753;43.144;24.714;2023-02-03T04:03:29;9.38;;;4.25;;
23169;SDS011;11753;43.144;24.714;2023-02-03T04:04:35;6.20;;;2.58;;
23169;SDS011;11753;43.144;24.714;2023-02-03T04:05:39;8.82;;;3.95;;
23169;SDS011;11753;43.144;24.714;2023-02-03T04:06:40;12.73;;;7.18;;
23169;SDS011;11753;43.144;24.714;2023-02-03T04:07:42;21.10;;;13.98;;
23169;SDS011;11753;43.144;24.714;2023-02-03T04:08:44;8.82;;;2.97;;
23169;SDS011;11753;43.144;24.714;2023-02-03T04:09:45;8.82;;;4.55;;
23169;SDS011;11753;43.144;24.714;2023-02-03T04:10:46;7.45;;;4.70;;
23169;SDS011;11753;43.144;24.714;2023-02-03T04:11:47;4.93;;;2.90;;
23169;SDS011;11753;43.144;24.714;2023-02-03T04:13:01;5.70;;;3.70;;
23169;SDS011;11753;43.144;24.714;2023-02-03T04:14:05;8.95;;;4.35;;
23169;SDS011;11753;43.144;24.714;2023-02-03T04:15:06;6.95;;;4.30;;
23169;SDS011;11753;43.144;24.714;2023-02-03T04:16:08;6.47;;;2.97;;
23169;SDS011;11753;43.144;24.714;2023-02-03T04:17:09;7.07;;;4.03;;
23169;SDS011;11753;43.144;24.714;2023-02-03T04:18:11;8.45;;;3.47;;
23169;SDS011;11753;43.144;24.714;2023-02-03T04:19:14;6.93;;;3.13;;
23169;SDS011;11753;43.144;24.714;2023-02-03T04:20:15;8.15;;;3.63;;
23169;SDS011;11753;43.144;24.714;2023-02-03T04:21:16;6.45;;;3.13;;
23169;SDS011;11753;43.144;24.714;2023-02-03T04:22:17;4.28;;;2.75;;
23169;SDS011;11753;43.144;24.714;2023-02-03T04:23:18;7.78;;;3.70;;
23169;SDS011;11753;43.144;24.714;2023-02-03T04:24:19;6.20;;;3.72;;
23169;SDS011;11753;43.144;24.714;2023-02-03T04:25:20;5.65;;;2.70;;
23169;SDS011;11753;43.144;24.714;2023-02-03T04:26:21;6.70;;;3.85;;
23169;SDS011;11753;43.144;24.714;2023-02-03T04:27:23;7.43;;;4.05;;
23169;SDS011;11753;43.144;24.714;2023-02-03T04:28:25;6.28;;;3.45;;
23169;SDS011;11753;43.144;24.714;2023-02-03T04:29:26;6.32;;;3.20;;
23169;SDS011;11753;43.144;24.714;2023-02-03T04:30:27;4.68;;;2.83;;
23169;SDS011;11753;43.144;24.714;2023-02-03T04:31:28;7.03;;;3.35;;
23169;SDS011;11753;43.144;24.714;2023-02-03T04:32:29;6.40;;;2.97;;
23169;SDS011;11753;43.144;24.714;2023-02-03T04:33:30;4.95;;;3.00;;
23169;SDS011;11753;43.144;24.714;2023-02-03T04:34:31;7.63;;;3.92;;
23169;SDS011;11753;43.144;24.714;2023-02-03T04:35:32;6.82;;;3.22;;
23169;SDS011;11753;43.144;24.714;2023-02-03T04:36:33;5.40;;;3.10;;
23169;SDS011;11753;43.144;24.714;2023-02-03T04:37:34;6.75;;;3.55;;
23169;SDS011;11753;43.144;24.714;2023-02-03T04:38:35;5.57;;;3.85;;
23169;SDS011;11753;43.144;24.714;2023-02-03T04:39:36;6.72;;;4.55;;
23169;SDS011;11753;43.144;24.714;2023-02-03T04:40:37;6.88;;;3.35;;
23169;SDS011;11753;43.144;24.714;2023-02-03T04:41:38;5.70;;;3.00;;
23169;SDS011;11753;43.144;24.714;2023-02-03T04:42:39;5.20;;;3.88;;
23169;SDS011;11753;43.144;24.714;2023-02-03T04:43:40;8.20;;;4.75;;
23169;SDS011;11753;43.144;24.714;2023-02-03T04:44:41;10.15;;;6.05;;
23169;SDS011;11753;43.144;24.714;2023-02-03T04:45:42;6.38;;;3.80;;
23169;SDS011;11753;43.144;24.714;2023-02-03T04:46:43;5.00;;;3.08;;
23169;SDS011;11753;43.144;24.714;2023-02-03T04:47:44;5.70;;;2.80;;
23169;SDS011;11753;43.144;24.714;2023-02-03T04:48:51;6.35;;;3.30;;
23169;SDS011;11753;43.144;24.714;2023-02-03T04:49:52;8.10;;;3.28;;
23169;SDS011;11753;43.144;24.714;2023-02-03T04:50:53;5.53;;;3.30;;
23169;SDS011;11753;43.144;24.714;2023-02-03T04:51:54;6.38;;;3.30;;
23169;SDS011;11753;43.144;24.714;2023-02-03T04:52:55;6.25;;;3.08;;
23169;SDS011;11753;43.144;24.714;2023-02-03T04:53:59;5.47;;;3.00;;
23169;SDS011;11753;43.144;24.714;2023-02-03T04:55:00;5.28;;;2.97;;
23169;SDS011;11753;43.144;24.714;2023-02-03T04:56:04;6.22;;;3.03;;
23169;SDS011;11753;43.144;24.714;2023-02-03T04:57:05;4.95;;;2.97;;
23169;SDS011;11753;43.144;24.714;2023-02-03T04:58:07;6.70;;;3.30;;
23169;SDS011;11753;43.144;24.714;2023-02-03T04:59:08;6.35;;;3.50;;
23169;SDS011;11753;43.144;24.714;2023-02-03T05:00:09;6.18;;;3.40;;
23169;SDS011;11753;43.144;24.714;2023-02-03T05:01:11;5.70;;;3.05;;
23169;SDS011;11753;43.144;24.714;2023-02-03T05:02:12;8.30;;;3.60;;
23169;SDS011;11753;43.144;24.714;2023-02-03T05:03:13;6.10;;;3.20;;
23169;SDS011;11753;43.144;24.714;2023-02-03T05:04:14;8.13;;;2.80;;
23169;SDS011;11753;43.144;24.714;2023-02-03T05:05:15;4.78;;;3.10;;
23169;SDS011;11753;43.144;24.714;2023-02-03T05:06:20;5.38;;;3.10;;
23169;SDS011;11753;43.144;24.714;2023-02-03T05:07:25;7.05;;;3.65;;
23169;SDS011;11753;43.144;24.714;2023-02-03T05:08:26;7.20;;;3.50;;
23169;SDS011;11753;43.144;24.714;2023-02-03T05:09:27;6.45;;;3.00;;
23169;SDS011;11753;43.144;24.714;2023-02-03T05:10:28;5.80;;;3.25;;
23169;SDS011;11753;43.144;24.714;2023-02-03T05:11:29;9.95;;;3.30;;
23169;SDS011;11753;43.144;24.714;2023-02-03T05:12:30;3.90;;;2.70;;
23169;SDS011;11753;43.144;24.714;2023-02-03T05:13:31;4.72;;;2.88;;
23169;SDS011;11753;43.144;24.714;2023-02-03T05:14:32;6.78;;;3.20;;
23169;SDS011;11753;43.144;24.714;2023-02-03T05:15:33;7.07;;;3.47;;
23169;SDS011;11753;43.144;24.714;2023-02-03T05:16:34;4.85;;;3.17;;
23169;SDS011;11753;43.144;24.714;2023-02-03T05:17:35;5.10;;;3.10;;
23169;SDS011;11753;43.144;24.714;2023-02-03T05:18:39;6.95;;;2.88;;
23169;SDS011;11753;43.144;24.714;2023-02-03T05:19:40;4.85;;;2.78;;
23169;SDS011;11753;43.144;24.714;2023-02-03T05:20:41;5.70;;;2.60;;
23169;SDS011;11753;43.144;24.714;2023-02-03T05:21:42;5.05;;;3.15;;
23169;SDS011;11753;43.144;24.714;2023-02-03T05:22:43;5.55;;;3.00;;
23169;SDS011;11753;43.144;24.714;2023-02-03T05:23:44;4.75;;;2.90;;
23169;SDS011;11753;43.144;24.714;2023-02-03T05:24:45;6.07;;;3.55;;
23169;SDS011;11753;43.144;24.714;2023-02-03T05:25:46;4.80;;;2.72;;
23169;SDS011;11753;43.144;24.714;2023-02-03T05:26:48;6.43;;;3.20;;
23169;SDS011;11753;43.144;24.714;2023-02-03T05:27:50;4.70;;;3.10;;
23169;SDS011;11753;43.144;24.714;2023-02-03T05:28:51;7.68;;;3.55;;
23169;SDS011;11753;43.144;24.714;2023-02-03T05:29:52;4.65;;;2.97;;
23169;SDS011;11753;43.144;24.714;2023-02-03T05:30:53;7.55;;;3.30;;
23169;SDS011;11753;43.144;24.714;2023-02-03T05:31:54;4.68;;;2.97;;
23169;SDS011;11753;43.144;24.714;2023-02-03T05:32:55;5.00;;;2.97;;
23169;SDS011;11753;43.144;24.714;2023-02-03T05:33:56;6.38;;;3.17;;
23169;SDS011;11753;43.144;24.714;2023-02-03T05:34:57;9.23;;;6.00;;
23169;SDS011;11753;43.144;24.714;2023-02-03T05:35:58;9.75;;;5.07;;
23169;SDS011;11753;43.144;24.714;2023-02-03T05:36:59;8.82;;;5.55;;
23169;SDS011;11753;43.144;24.714;2023-02-03T05:38:01;12.68;;;6.93;;
23169;SDS011;11753;43.144;24.714;2023-02-03T05:39:02;8.38;;;3.58;;
23169;SDS011;11753;43.144;24.714;2023-02-03T05:40:03;10.63;;;4.82;;
23169;SDS011;11753;43.144;24.714;2023-02-03T05:41:23;7.67;;;4.43;;
23169;SDS011;11753;43.144;24.714;2023-02-03T05:42:46;11.88;;;6.53;;
23169;SDS011;11753;43.144;24.714;2023-02-03T05:43:49;10.55;;;6.57;;
23169;SDS011;11753;43.144;24.714;2023-02-03T05:44:51;6.75;;;4.18;;
23169;SDS011;11753;43.144;24.714;2023-02-03T05:45:52;7.65;;;4.00;;
23169;SDS011;11753;43.144;24.714;2023-02-03T05:46:53;7.93;;;4.03;;
23169;SDS011;11753;43.144;24.714;2023-02-03T05:47:55;7.60;;;4.75;;
23169;SDS011;11753;43.144;24.714;2023-02-03T05:48:55;9.82;;;5.00;;
23169;SDS011;11753;43.144;24.714;2023-02-03T05:49:56;8.10;;;3.83;;
23169;SDS011;11753;43.144;24.714;2023-02-03T05:50:57;7.15;;;4.00;;
23169;SDS011;11753;43.144;24.714;2023-02-03T05:51:58;5.25;;;3.50;;
23169;SDS011;11753;43.144;24.714;2023-02-03T05:52:59;6.38;;;3.85;;
23169;SDS011;11753;43.144;24.714;2023-02-03T05:54:01;6.45;;;3.83;;
23169;SDS011;11753;43.144;24.714;2023-02-03T05:55:02;5.38;;;3.80;;
23169;SDS011;11753;43.144;24.714;2023-02-03T05:56:03;6.72;;;3.70;;
23169;SDS011;11753;43.144;24.714;2023-02-03T05:57:04;6.80;;;3.28;;
23169;SDS011;11753;43.144;24.714;2023-02-03T05:58:04;6.90;;;4.00;;
23169;SDS011;11753;43.144;24.714;2023-02-03T05:59:07;8.45;;;4.40;;
23169;SDS011;11753;43.144;24.714;2023-02-03T06:00:08;7.40;;;3.65;;
23169;SDS011;11753;43.144;24.714;2023-02-03T06:01:09;6.45;;;3.97;;
23169;SDS011;11753;43.144;24.714;2023-02-03T06:02:10;6.35;;;4.60;;
23169;SDS011;11753;43.144;24.714;2023-02-03T06:03:11;6.82;;;4.20;;
23169;SDS011;11753;43.144;24.714;2023-02-03T06:04:12;8.82;;;4.07;;
23169;SDS011;11753;43.144;24.714;2023-02-03T06:05:13;5.85;;;4.40;;
23169;SDS011;11753;43.144;24.714;2023-02-03T06:06:15;6.63;;;4.53;;
23169;SDS011;11753;43.144;24.714;2023-02-03T06:07:16;9.65;;;4.53;;
23169;SDS011;11753;43.144;24.714;2023-02-03T06:08:17;8.27;;;4.32;;
23169;SDS011;11753;43.144;24.714;2023-02-03T06:09:18;6.90;;;3.67;;
23169;SDS011;11753;43.144;24.714;2023-02-03T06:10:20;6.20;;;3.80;;
23169;SDS011;11753;43.144;24.714;2023-02-03T06:11:21;7.43;;;3.95;;
23169;SDS011;11753;43.144;24.714;2023-02-03T06:12:25;8.02;;;5.28;;
23169;SDS011;11753;43.144;24.714;2023-02-03T06:13:26;6.35;;;3.85;;
23169;SDS011;11753;43.144;24.714;2023-02-03T06:14:28;9.40;;;3.88;;
23169;SDS011;11753;43.144;24.714;2023-02-03T06:15:29;5.80;;;3.50;;
23169;SDS011;11753;43.144;24.714;2023-02-03T06:16:30;7.40;;;4.10;;
23169;SDS011;11753;43.144;24.714;2023-02-03T06:17:31;7.22;;;3.45;;
23169;SDS011;11753;43.144;24.714;2023-02-03T06:18:34;7.63;;;3.67;;
23169;SDS011;11753;43.144;24.714;2023-02-03T06:19:37;5.65;;;4.03;;
23169;SDS011;11753;43.144;24.714;2023-02-03T06:20:38;6.20;;;4.05;;
23169;SDS011;11753;43.144;24.714;2023-02-03T06:21:39;6.90;;;4.00;;
23169;SDS011;11753;43.144;24.714;2023-02-03T06:22:40;7.70;;;4.10;;
23169;SDS011;11753;43.144;24.714;2023-02-03T06:23:46;5.70;;;3.47;;
23169;SDS011;11753;43.144;24.714;2023-02-03T06:24:47;7.28;;;4.30;;
23169;SDS011;11753;43.144;24.714;2023-02-03T06:25:49;7.38;;;3.70;;
23169;SDS011;11753;43.144;24.714;2023-02-03T06:26:51;7.90;;;3.50;;
23169;SDS011;11753;43.144;24.714;2023-02-03T06:27:52;8.02;;;4.00;;
23169;SDS011;11753;43.144;24.714;2023-02-03T06:28:53;8.43;;;3.95;;
23169;SDS011;11753;43.144;24.714;2023-02-03T06:29:54;7.72;;;4.32;;
23169;SDS011;11753;43.144;24.714;2023-02-03T06:30:55;5.43;;;3.25;;
23169;SDS011;11753;43.144;24.714;2023-02-03T06:31:56;7.93;;;4.72;;
23169;SDS011;11753;43.144;24.714;2023-02-03T06:32:57;9.18;;;4.00;;
23169;SDS011;11753;43.144;24.714;2023-02-03T06:33:58;7.03;;;4.07;;
23169;SDS011;11753;43.144;24.714;2023-02-03T06:35:02;6.38;;;4.20;;
23169;SDS011;11753;43.144;24.714;2023-02-03T06:36:03;16.38;;;9.23;;
23169;SDS011;11753;43.144;24.714;2023-02-03T06:37:04;7.82;;;5.25;;
23169;SDS011;11753;43.144;24.714;2023-02-03T06:38:05;6.28;;;3.55;;
23169;SDS011;11753;43.144;24.714;2023-02-03T06:39:06;8.93;;;4.45;;
23169;SDS011;11753;43.144;24.714;2023-02-03T06:40:08;9.55;;;5.13;;
23169;SDS011;11753;43.144;24.714;2023-02-03T06:41:10;5.45;;;3.60;;
23169;SDS011;11753;43.144;24.714;2023-02-03T06:42:11;8.95;;;4.40;;
23169;SDS011;11753;43.144;24.714;2023-02-03T06:43:13;7.32;;;3.80;;
23169;SDS011;11753;43.144;24.714;2023-02-03T06:44:14;8.82;;;4.57;;